Jump to content

epza

Members
  • Content Count

    83
  • Donations

    $0.00 
  • Joined

  • Last visited

Community Reputation

0 Neutral

Flight Sim Profile

  • Commercial Member
    No
  • Online Flight Organization Membership
    none
  • Virtual Airlines
    Yes
  1. >Good evening everyone. For a long time I have been flying>simple short hops using the B200 , MD80, 737NG, and Baron58 &>Great Alps Mountains (TIROL) , narrows valleys compare to American continentWindy, interesting approaches NDB NDB RTT - 303 AustriaTo Runway 26, difficult -coming on angle Scenery awesomeAirport frequencies: Approach 119.275 MHz, ATIS 126.025 MHz, Tower 120.1 MHz; Runway info: Runway 8/26 (6562' x 148'), Surface: Asphalt; ILS info: ILS Runway 8, Freq: 109.7, Bearing: 80.3, ILS Runway 26, Freq: 111.1, Bearing: 259.0; Fuel: Jet A1 without icing inhibitor, Avgas 100LINNSBRUCK, TIROLMy suggestionStart at LOWS to LOWI Salzburg
  2. >Oh I see. I just saw the CES 2006 presentation video and yes>- FSX is just what I expected, same story as with every new>edition of FS. Bad framerates (imagine what kind of computer>that is) and nothing really new except a super demanding>application with a few new features. I don't even try to>imagine the framerates with some scenery addon on my computer.>5fps is probably optimistic.There will be many disappointed people installing the FX on their very expensive new machines.The program is build for the future not for now, Microsoft knows that there are going to be faster cards and processors in 2 years and developing team always looking for the future not for now as any.The FS9 works very well on the recent Intel and ati components.There are always people with the optimistic line but as you have seen on presentation ,slow ,slow ,slow landing and oops stop before the runway or turning .However its best program on the market.http://www3.sympatico.ca/seroka/lo14.jpg
  3. >>At the end of the day your *perception* of performance will be>a function of what you ask your computer to do (via content>and settings) and what it can adequately handle. This is true>of all computer programs. Flight Sim provides you so many ways>to overtax your machine that many people simply loose sight of>this as they tweak and experiment trying to discover the>hidden secret of unlimited frame rates. Ask Ponce de Leon>about his similar pursuit. ;)>I use FS since FS 95.The best performance in the history of Microsoft FS was FS98 When Microsoft released FS98 I went to shop and build computer with the best motherboard, and processor etcNo problem with performance - , excellent Since FS2000 we started to see new terminology on forums ---stuttering People where buying the best machines and had problems with running without stuttering The general question to Microsoft .....Is FX 10 will run very smooth with sliders to the maximum without any add-ons using the best computer with most recent components?What was easy to notice that the best thing to do was always wait about 8 months after Microsoft released the FS and buy the most recent chip and mobo etc.But
  4. Jim Thanks for taking your time to answer to this questionNow I can relax http://www3.sympatico.ca/seroka/lo14.jpg
  5. This METAR and TAF are from Nav Canada not from your program.If you check the attached picture you will see no info in the second part.Great Regardshttp://www3.sympatico.ca/seroka/lo14.jpg
  6. OTTAWA/GATINEAU/QCMETAR CYND 261100Z 21007KT 4SM -RA BR OVC005 19/18 A2966 RMK SF8 SLP043= SPECI CYND 261144Z 21011KT 2 1/2SM -RA BR BKN004 OVC008 RMK SF6SF2= METAR CYND 261200Z 21007KT 3SM -RA BR BKN004 OVC009 19/18 A2963 RMK SF6SF2 SLP035= SPECI CYND 261227Z 21011KT 2SM -RA BR OVC004 RMK SF8= METAR CYND 261300Z 23007KT 2SM -RA BR BKN005 OVC008 19/18 A2960 RMK SF6SF2 SLP024= TAF AMD CYND 261202Z 261224 20010KT 2SM RA BR OVC004 TEMPO 1218 4SM -RA BR OVC012 FM1800Z 03015G25KT 2SM -SHRA BR BKN007 OVC040 TEMPO 1822 6SM -RA BR SCT007 OVC040 FM2200Z 01008KT 4SM -SHRA BR BKN020 TEMPO 2224 P6SM NSW BKN030 RMK NXT FCST BY 18Z= OTTAWA/MACDONALD-CARTIER INTL/ONMETAR CYOW 261100Z 20009G15KT 4SM -RA BR BKN008 OVC027 19/18 A2967 RMK SF6SC2 SLP048= METAR CYOW 261200Z 20008KT 4SM -RA BR OVC005 19/18 A2964 RMK SF8 SLP037= METAR CYOW 261300Z 20012G17KT 6SM -RA BR BKN006 OVC035 19/18 A2961 RMK SF5SC3 SLP028= TAF AMD CYOW 261313Z 261312 20012KT 2SM RA BR OVC004 TEMPO 1318 6SM -RA BR OVC010 FM1800Z 03010KT 2SM -SHRA BR BKN008 OVC040 TEMPO 1822 6SM -RA BR SCT008 OVC040 FM2200Z 01008KT 4SM -SHRA BR BKN020 TEMPO 2202 P6SM NSW BKN030 FM0200Z 36008KT 6SM BR SCT020 PROB30 0812 3/4SM BR RMK NXT FCST BY 15Z= Hello My active weather program is not providing TAF information anymore.As you see on the text above .this TAF information where displayed and generate in the past My version is 4.5 upgraded.Do you think that this version is not supported anymore with TAF?Please advice and Happy Landingshttp://www3.sympatico.ca/seroka/lo14.jpg
  7. http://www.avsim.com/hangar/utils/servinfo/Here is the link to all information about controllers working for youhappy landings http://www3.sympatico.ca/seroka/lo14.jpg
  8. Hi KimbersMonday flight plan includes KBOS; I will check Boston Tower tomorrow and the
  9. http://www.liveatc.net/feedindex.phpFor those who don
  10. This aircraft belongs to a real pilot and definitely has his own character.I like it very much.http://www3.sympatico.ca/seroka/lo14.jpg
  11. Hello Everybody I just wanted to recommend a great flight from Lukla VNLK to Lamidada VNLD Nepal It
  12. Thanks Craig for your advice Lowi is my favourite;//// I landed there many times in real life, during bad weather too:-hang ////http://www3.sympatico.ca/seroka/lo14.jpg
  13. Hello I had no problem with ATC navigation to vector me to Land on RWY 8 LOWI in the FS 2002, 00, and actually the Proflight as add on was giving me very nice approaches.Using FS9 I have to dive to the runway , since last call from ATC.Is anybody up there that was flying to Innsbruck? I would like to know some of your expirence also runway 26Thank you http://www3.sympatico.ca/seroka/lo14.jpg
  14. This topic has been moved by the moderator of this forum. It can be found at:http://forums.avsim.net/dcboard.php?az=sho...&topic_id=17593
×
×
  • Create New...